Time;durP1;ratioP1;P1;durP2;ratioP2;P2;SDS_P1;SDS_P2;PMS_P1;PMS_P2;Temp;Humidity;BMP_temperature;BMP_pressure;BME280_temperature;BME280_humidity;BME280_pressure;Samples;Min_cycle;Max_cycle;Signal;HPM_P1;HPM_P2
2024/03/07 00:00:47;;;;;;;32.23;18.50;;;;;;;;;;5033618;28;20425;-82
2024/03/07 00:03:13;;;;;;;28.17;18.17;;;;;;;;;;5033884;28;20472;-77
2024/03/07 00:05:39;;;;;;;30.60;18.77;;;;;;;;;;5034429;28;20475;-81
2024/03/07 00:08:06;;;;;;;35.20;18.30;;;;;;;;;;5034027;28;20813;-81
2024/03/07 00:10:32;;;;;;;32.47;19.27;;;;;;;;;;5034545;28;20405;-85
2024/03/07 00:12:58;;;;;;;30.37;19.20;;;;;;;;;;5033738;28;20420;-86
2024/03/07 00:15:24;;;;;;;28.40;18.00;;;;;;;;;;5033841;28;20409;-87
2024/03/07 00:17:50;;;;;;;30.93;19.20;;;;;;;;;;5033934;28;20423;-87
2024/03/07 00:20:19;;;;;;;26.33;16.90;;;;;;;;;;5033739;28;20401;-86
2024/03/07 00:22:45;;;;;;;29.87;18.77;;;;;;;;;;5033651;28;20512;-87
2024/03/07 00:25:12;;;;;;;35.43;19.00;;;;;;;;;;5032520;28;20517;-86
2024/03/07 00:27:38;;;;;;;29.53;16.80;;;;;;;;;;5033063;28;20925;-85
2024/03/07 00:30:05;;;;;;;32.57;17.87;;;;;;;;;;5033446;28;20836;-87
2024/03/07 00:32:35;;;;;;;35.13;18.83;;;;;;;;;;5033368;28;20416;-86
2024/03/07 00:35:03;;;;;;;33.00;18.23;;;;;;;;;;5032237;28;20897;-82
2024/03/07 00:37:28;;;;;;;34.30;17.90;;;;;;;;;;5033413;28;20416;-87
2024/03/07 00:39:54;;;;;;;27.53;17.60;;;;;;;;;;5033183;28;20498;-85
2024/03/07 00:42:22;;;;;;;30.60;17.63;;;;;;;;;;5032659;28;20464;-80
2024/03/07 00:44:49;;;;;;;29.17;17.40;;;;;;;;;;5033323;28;20488;-88
2024/03/07 00:47:17;;;;;;;34.70;18.20;;;;;;;;;;5028167;28;20441;-82
2024/03/07 00:49:43;;;;;;;31.97;17.50;;;;;;;;;;5012952;28;20514;-81
2024/03/07 00:52:10;;;;;;;26.20;16.37;;;;;;;;;;5013132;28;20772;-83
2024/03/07 00:54:36;;;;;;;33.93;17.27;;;;;;;;;;5013112;28;20442;-86
2024/03/07 00:57:02;;;;;;;27.43;16.50;;;;;;;;;;5012904;28;20558;-85
2024/03/07 00:59:28;;;;;;;31.47;16.97;;;;;;;;;;5013439;28;20414;-87
2024/03/07 01:01:54;;;;;;;31.67;16.60;;;;;;;;;;5012903;28;20472;-86
2024/03/07 01:04:20;;;;;;;32.67;20.70;;;;;;;;;;5013553;28;20977;-89
2024/03/07 01:06:45;;;;;;;35.23;19.73;;;;;;;;;;5017510;28;20441;-88
2024/03/07 01:09:16;;;;;;;29.80;18.53;;;;;;;;;;5019626;28;20429;-85
2024/03/07 01:11:45;;;;;;;29.80;18.30;;;;;;;;;;5020484;28;20405;-89
2024/03/07 01:14:11;;;;;;;30.27;21.63;;;;;;;;;;5019795;28;20405;-84
2024/03/07 01:16:37;;;;;;;29.07;16.67;;;;;;;;;;5019190;28;20401;-85
2024/03/07 01:19:05;;;;;;;31.13;16.47;;;;;;;;;;5019260;28;20440;-83
2024/03/07 01:21:31;;;;;;;30.00;17.47;;;;;;;;;;5019471;28;20462;-86
2024/03/07 01:23:59;;;;;;;33.67;18.10;;;;;;;;;;5019481;28;20424;-84
2024/03/07 01:26:25;;;;;;;28.73;17.30;;;;;;;;;;5019217;28;20421;-85
2024/03/07 01:28:50;;;;;;;31.70;19.17;;;;;;;;;;5018658;28;20410;-78
2024/03/07 01:31:16;;;;;;;31.73;15.50;;;;;;;;;;5019318;28;21233;-80
2024/03/07 01:33:42;;;;;;;33.70;18.30;;;;;;;;;;5019104;28;20425;-82
2024/03/07 01:36:08;;;;;;;34.90;20.10;;;;;;;;;;5019122;28;20418;-80
2024/03/07 01:38:34;;;;;;;35.33;19.63;;;;;;;;;;5015182;28;20768;-81
2024/03/07 01:41:00;;;;;;;30.80;17.50;;;;;;;;;;5018927;28;20427;-79
2024/03/07 01:43:26;;;;;;;29.80;17.80;;;;;;;;;;5018639;28;20569;-79
2024/03/07 01:45:54;;;;;;;28.47;17.60;;;;;;;;;;5018898;28;20402;-78
2024/03/07 01:48:25;;;;;;;32.77;18.67;;;;;;;;;;5018891;28;20419;-80
2024/03/07 01:50:51;;;;;;;34.13;19.50;;;;;;;;;;5018880;28;20470;-80
2024/03/07 01:53:17;;;;;;;29.17;17.60;;;;;;;;;;5017653;28;20418;-81
2024/03/07 01:55:44;;;;;;;27.93;16.33;;;;;;;;;;5018823;28;20506;-80
2024/03/07 01:58:14;;;;;;;27.70;16.63;;;;;;;;;;5018420;28;20431;-82
2024/03/07 02:00:40;;;;;;;30.43;17.17;;;;;;;;;;5018791;28;20451;-79
2024/03/07 02:03:07;;;;;;;31.00;17.00;;;;;;;;;;5018689;28;20510;-78
2024/03/07 02:05:34;;;;;;;25.67;15.23;;;;;;;;;;5018663;28;20414;-78
2024/03/07 02:08:01;;;;;;;30.03;16.13;;;;;;;;;;5018867;28;20419;-80
2024/03/07 02:10:27;;;;;;;35.47;19.00;;;;;;;;;;5018760;28;20921;-80
2024/03/07 02:12:53;;;;;;;33.53;18.40;;;;;;;;;;5019007;28;20451;-87
2024/03/07 02:15:19;;;;;;;27.97;16.10;;;;;;;;;;5018896;28;20813;-78
2024/03/07 02:17:45;;;;;;;27.83;17.40;;;;;;;;;;5018958;28;20484;-80
2024/03/07 02:20:13;;;;;;;24.40;17.10;;;;;;;;;;5014546;28;20419;-80
2024/03/07 02:22:39;;;;;;;25.93;15.73;;;;;;;;;;5030486;28;20474;-81
2024/03/07 02:25:05;;;;;;;31.30;17.33;;;;;;;;;;5016000;28;20766;-84
2024/03/07 02:27:31;;;;;;;35.37;16.60;;;;;;;;;;5015331;28;20419;-84
2024/03/07 02:29:57;;;;;;;27.37;16.30;;;;;;;;;;5015204;28;20472;-85
2024/03/07 02:32:23;;;;;;;35.30;17.40;;;;;;;;;;5015211;28;20414;-81
2024/03/07 02:34:49;;;;;;;30.60;16.57;;;;;;;;;;5010102;28;20412;-86
2024/03/07 02:37:14;;;;;;;37.10;18.60;;;;;;;;;;5017144;28;20529;-81
2024/03/07 02:39:40;;;;;;;26.90;16.20;;;;;;;;;;5015512;28;20484;-82
2024/03/07 02:42:06;;;;;;;36.03;18.57;;;;;;;;;;5014864;28;20536;-83
2024/03/07 02:44:32;;;;;;;33.43;18.57;;;;;;;;;;5015247;28;20412;-80
2024/03/07 02:46:59;;;;;;;31.47;17.93;;;;;;;;;;5015041;28;20471;-78
2024/03/07 02:49:25;;;;;;;31.93;17.87;;;;;;;;;;5015079;28;20771;-78
2024/03/07 02:51:51;;;;;;;30.97;17.77;;;;;;;;;;5014767;28;20427;-78
2024/03/07 02:54:17;;;;;;;35.23;17.77;;;;;;;;;;5013634;28;20422;-78
2024/03/07 02:56:43;;;;;;;36.80;17.47;;;;;;;;;;5012444;28;20410;-78
2024/03/07 02:59:09;;;;;;;35.17;18.63;;;;;;;;;;5014479;28;20492;-78
2024/03/07 03:01:35;;;;;;;31.93;17.57;;;;;;;;;;5014693;28;20475;-79
2024/03/07 03:04:00;;;;;;;36.60;19.10;;;;;;;;;;5014690;28;20428;-79
2024/03/07 03:06:26;;;;;;;33.57;18.40;;;;;;;;;;5014634;28;20766;-78
2024/03/07 03:08:54;;;;;;;30.60;16.20;;;;;;;;;;5013696;28;20425;-78
2024/03/07 03:11:20;;;;;;;33.77;18.43;;;;;;;;;;5011254;28;20414;-77
2024/03/07 03:13:47;;;;;;;32.30;17.37;;;;;;;;;;5012371;28;20926;-78
2024/03/07 03:16:13;;;;;;;31.07;17.40;;;;;;;;;;5013409;28;20423;-78
2024/03/07 03:18:39;;;;;;;24.17;15.23;;;;;;;;;;5013841;28;20460;-78
2024/03/07 03:21:05;;;;;;;26.07;16.00;;;;;;;;;;5014003;28;20969;-78
2024/03/07 03:23:31;;;;;;;28.20;15.53;;;;;;;;;;5014004;28;20477;-79
2024/03/07 03:25:57;;;;;;;32.97;15.00;;;;;;;;;;5014213;28;20411;-78
2024/03/07 03:28:23;;;;;;;24.47;15.87;;;;;;;;;;5014037;28;20410;-78
2024/03/07 03:30:51;;;;;;;28.30;15.97;;;;;;;;;;5013780;28;20556;-78
2024/03/07 03:33:17;;;;;;;22.50;12.60;;;;;;;;;;5014029;28;20423;-78
2024/03/07 03:35:43;;;;;;;31.63;16.10;;;;;;;;;;5014427;28;20442;-78
2024/03/07 03:38:09;;;;;;;30.60;16.60;;;;;;;;;;5014608;28;20411;-78
2024/03/07 03:40:35;;;;;;;30.57;15.07;;;;;;;;;;5013242;28;20483;-79
2024/03/07 03:43:01;;;;;;;27.27;14.53;;;;;;;;;;5012890;28;20989;-78
2024/03/07 03:45:27;;;;;;;29.50;15.60;;;;;;;;;;5014513;28;20412;-79
2024/03/07 03:47:53;;;;;;;28.17;15.10;;;;;;;;;;5014448;28;20426;-78
2024/03/07 03:50:20;;;;;;;34.77;17.30;;;;;;;;;;5014455;28;20415;-78
2024/03/07 03:52:45;;;;;;;27.73;13.53;;;;;;;;;;5014347;28;20921;-78
2024/03/07 03:55:12;;;;;;;23.47;14.30;;;;;;;;;;5014254;28;20414;-79
2024/03/07 03:57:39;;;;;;;29.00;15.57;;;;;;;;;;5013885;28;20521;-78
2024/03/07 04:00:12;;;;;;;25.50;14.67;;;;;;;;;;5014230;28;20425;-78
2024/03/07 04:02:38;;;;;;;24.00;14.40;;;;;;;;;;5014349;28;20505;-78
2024/03/07 04:05:04;;;;;;;20.20;13.50;;;;;;;;;;5014134;28;20521;-79
2024/03/07 04:07:33;;;;;;;27.47;15.00;;;;;;;;;;5014056;28;20469;-78
2024/03/07 04:09:59;;;;;;;32.40;14.70;;;;;;;;;;5014038;28;20776;-78
2024/03/07 04:12:26;;;;;;;24.60;13.77;;;;;;;;;;5013702;28;20415;-78
2024/03/07 04:14:54;;;;;;;25.53;15.30;;;;;;;;;;5013914;28;20906;-80
2024/03/07 04:17:20;;;;;;;24.60;14.03;;;;;;;;;;5013952;28;20421;-78
2024/03/07 04:19:48;;;;;;;24.17;13.60;;;;;;;;;;5013775;28;20442;-77
2024/03/07 04:22:14;;;;;;;29.70;13.87;;;;;;;;;;5013663;28;20468;-79
2024/03/07 04:24:40;;;;;;;22.10;13.77;;;;;;;;;;5013767;28;20414;-78
2024/03/07 04:27:06;;;;;;;19.93;13.50;;;;;;;;;;5013404;28;20404;-78
2024/03/07 04:29:32;;;;;;;25.13;15.70;;;;;;;;;;5013526;28;20801;-78
2024/03/07 04:31:59;;;;;;;25.93;15.10;;;;;;;;;;5013620;28;20426;-77
2024/03/07 04:34:25;;;;;;;27.87;14.10;;;;;;;;;;5013651;28;20427;-78
2024/03/07 04:36:51;;;;;;;22.50;13.50;;;;;;;;;;5013635;28;20413;-78
2024/03/07 04:39:24;;;;;;;26.70;15.00;;;;;;;;;;5012374;28;20426;-78
2024/03/07 04:41:52;;;;;;;24.10;14.23;;;;;;;;;;5012693;28;20458;-77
2024/03/07 04:44:18;;;;;;;28.90;14.03;;;;;;;;;;5013529;28;20410;-77
2024/03/07 04:46:44;;;;;;;20.73;14.13;;;;;;;;;;5012249;28;20402;-77
2024/03/07 04:49:10;;;;;;;25.30;13.60;;;;;;;;;;5013455;28;20426;-77
2024/03/07 04:51:36;;;;;;;21.63;14.53;;;;;;;;;;5013497;28;20402;-79
2024/03/07 04:54:02;;;;;;;25.10;15.03;;;;;;;;;;5012160;28;20422;-77
2024/03/07 04:56:28;;;;;;;26.33;14.40;;;;;;;;;;5013385;28;20417;-78
2024/03/07 04:58:54;;;;;;;21.07;13.60;;;;;;;;;;5012934;28;20414;-79
2024/03/07 05:01:20;;;;;;;23.10;14.93;;;;;;;;;;5013287;28;20499;-78
2024/03/07 05:03:47;;;;;;;23.40;14.13;;;;;;;;;;5011969;28;20477;-78
2024/03/07 05:06:12;;;;;;;23.30;14.33;;;;;;;;;;5013221;28;20493;-78
2024/03/07 05:08:38;;;;;;;21.17;13.57;;;;;;;;;;5013402;28;20506;-78
2024/03/07 05:11:04;;;;;;;23.73;12.70;;;;;;;;;;5011970;28;20418;-78
2024/03/07 05:13:31;;;;;;;22.33;12.47;;;;;;;;;;5012830;28;20468;-78
2024/03/07 05:15:57;;;;;;;17.97;12.30;;;;;;;;;;5013127;28;20903;-78
2024/03/07 05:18:23;;;;;;;22.03;12.43;;;;;;;;;;5013318;28;20773;-78
2024/03/07 05:20:49;;;;;;;18.30;12.00;;;;;;;;;;5013161;28;20406;-78
2024/03/07 05:23:15;;;;;;;19.60;12.33;;;;;;;;;;5012995;28;20486;-79
2024/03/07 05:25:41;;;;;;;20.87;12.63;;;;;;;;;;5013098;28;20398;-79
2024/03/07 05:28:07;;;;;;;14.80;11.23;;;;;;;;;;5012613;28;20502;-79
2024/03/07 05:30:33;;;;;;;20.80;12.30;;;;;;;;;;5012846;28;20876;-79
2024/03/07 05:33:01;;;;;;;19.57;11.60;;;;;;;;;;5012827;28;20428;-79
2024/03/07 05:35:29;;;;;;;18.37;12.50;;;;;;;;;;5012995;28;20456;-80
2024/03/07 05:37:56;;;;;;;20.93;12.53;;;;;;;;;;5012923;28;20418;-78
2024/03/07 05:40:22;;;;;;;19.40;12.03;;;;;;;;;;5012936;28;20447;-78
2024/03/07 05:42:48;;;;;;;15.07;9.87;;;;;;;;;;5012444;28;20516;-80
2024/03/07 05:45:15;;;;;;;15.50;10.50;;;;;;;;;;5012555;28;20397;-79
2024/03/07 05:47:41;;;;;;;19.00;10.77;;;;;;;;;;5011099;28;20446;-78
2024/03/07 05:50:07;;;;;;;21.00;10.80;;;;;;;;;;5012209;28;20440;-79
2024/03/07 05:52:33;;;;;;;20.00;12.40;;;;;;;;;;5012039;28;20468;-79
2024/03/07 05:54:59;;;;;;;17.80;11.23;;;;;;;;;;5015766;28;20453;-78
2024/03/07 05:57:25;;;;;;;18.10;12.53;;;;;;;;;;5015560;28;20786;-79
2024/03/07 05:59:51;;;;;;;18.57;11.77;;;;;;;;;;5015946;28;20409;-79
2024/03/07 06:02:17;;;;;;;19.20;13.23;;;;;;;;;;5013098;28;20497;-79
2024/03/07 06:04:43;;;;;;;19.23;10.90;;;;;;;;;;5015616;28;20873;-79
2024/03/07 06:07:10;;;;;;;17.00;11.03;;;;;;;;;;5015698;28;20413;-79
2024/03/07 06:09:36;;;;;;;18.90;11.93;;;;;;;;;;5015537;28;20417;-80
2024/03/07 06:12:04;;;;;;;17.53;11.27;;;;;;;;;;5014927;28;20422;-79
2024/03/07 06:14:30;;;;;;;22.07;11.90;;;;;;;;;;5015741;28;20497;-78
2024/03/07 06:16:58;;;;;;;17.60;9.50;;;;;;;;;;5015755;28;20410;-78
2024/03/07 06:19:24;;;;;;;17.70;10.20;;;;;;;;;;5015569;28;20430;-78
2024/03/07 06:21:50;;;;;;;19.13;11.80;;;;;;;;;;5014149;28;20498;-78
2024/03/07 06:24:17;;;;;;;13.63;9.63;;;;;;;;;;5015399;28;20528;-78
2024/03/07 06:26:48;;;;;;;19.57;11.57;;;;;;;;;;5014935;28;20438;-80
2024/03/07 06:29:18;;;;;;;17.17;11.43;;;;;;;;;;5015474;28;20530;-78
2024/03/07 06:31:46;;;;;;;17.90;10.60;;;;;;;;;;5015683;28;20476;-79
2024/03/07 06:34:13;;;;;;;15.13;11.17;;;;;;;;;;5015753;28;20469;-78
2024/03/07 06:36:40;;;;;;;14.93;10.73;;;;;;;;;;5015743;28;20449;-79
2024/03/07 06:39:06;;;;;;;15.47;10.27;;;;;;;;;;5015735;28;20415;-78
2024/03/07 06:41:33;;;;;;;19.70;9.60;;;;;;;;;;5015028;28;20428;-78
2024/03/07 06:43:59;;;;;;;17.50;11.87;;;;;;;;;;5015603;28;20441;-78
2024/03/07 06:46:25;;;;;;;17.50;11.10;;;;;;;;;;5015499;28;20410;-78
2024/03/07 06:48:51;;;;;;;14.40;10.10;;;;;;;;;;5014242;28;20992;-78
2024/03/07 06:51:17;;;;;;;17.90;11.63;;;;;;;;;;5015508;28;20406;-78
2024/03/07 06:53:46;;;;;;;16.73;10.17;;;;;;;;;;5015552;28;20408;-78
2024/03/07 06:56:12;;;;;;;17.17;10.93;;;;;;;;;;5015286;28;20407;-78
2024/03/07 06:58:38;;;;;;;15.20;10.13;;;;;;;;;;5015099;28;20907;-79
2024/03/07 07:01:09;;;;;;;15.80;10.40;;;;;;;;;;5013943;28;20423;-78
2024/03/07 07:03:35;;;;;;;16.67;9.57;;;;;;;;;;5014894;28;20476;-79
2024/03/07 07:06:01;;;;;;;16.30;10.40;;;;;;;;;;5015189;28;20428;-80
2024/03/07 07:08:29;;;;;;;13.63;10.30;;;;;;;;;;5015237;28;20509;-79
2024/03/07 07:10:55;;;;;;;14.97;8.60;;;;;;;;;;5015097;28;20402;-79
2024/03/07 07:13:21;;;;;;;16.63;9.30;;;;;;;;;;5014767;28;20540;-78
2024/03/07 07:15:47;;;;;;;15.33;9.47;;;;;;;;;;5015086;28;20912;-78
2024/03/07 07:18:13;;;;;;;13.00;8.47;;;;;;;;;;5015053;28;20421;-79
2024/03/07 07:20:39;;;;;;;13.97;9.67;;;;;;;;;;5014933;28;20419;-79
2024/03/07 07:23:06;;;;;;;14.43;10.00;;;;;;;;;;5014902;28;20523;-79
2024/03/07 07:25:32;;;;;;;13.47;9.80;;;;;;;;;;5014894;28;20467;-78
2024/03/07 07:27:58;;;;;;;14.67;9.23;;;;;;;;;;5015045;28;20450;-78
2024/03/07 07:30:24;;;;;;;14.50;9.20;;;;;;;;;;5014614;28;20454;-78
2024/03/07 07:32:51;;;;;;;18.07;10.13;;;;;;;;;;5014818;28;20425;-79
2024/03/07 07:35:17;;;;;;;11.57;8.27;;;;;;;;;;5014170;28;20406;-79
2024/03/07 07:37:44;;;;;;;13.57;9.70;;;;;;;;;;5014122;28;20461;-79
2024/03/07 07:40:14;;;;;;;14.17;9.10;;;;;;;;;;5014498;28;20406;-79
2024/03/07 07:42:41;;;;;;;12.47;8.70;;;;;;;;;;5013938;28;20473;-79
2024/03/07 07:45:10;;;;;;;16.03;10.63;;;;;;;;;;5013979;28;20781;-78
2024/03/07 07:47:37;;;;;;;13.30;9.67;;;;;;;;;;5014454;28;20834;-78
2024/03/07 07:50:06;;;;;;;15.10;11.47;;;;;;;;;;5014209;28;20472;-78
2024/03/07 07:52:32;;;;;;;16.97;10.10;;;;;;;;;;5014398;28;20406;-79
2024/03/07 07:54:59;;;;;;;18.27;11.27;;;;;;;;;;5013862;28;20424;-78
2024/03/07 07:57:25;;;;;;;15.37;10.67;;;;;;;;;;5013507;28;21057;-82
2024/03/07 07:59:51;;;;;;;15.80;9.67;;;;;;;;;;5013498;28;20435;-80
2024/03/07 08:02:17;;;;;;;12.47;8.73;;;;;;;;;;5013752;28;20459;-78
2024/03/07 08:04:43;;;;;;;17.97;11.57;;;;;;;;;;5014220;28;20906;-78
2024/03/07 08:07:09;;;;;;;14.20;9.77;;;;;;;;;;5014204;28;20413;-78
2024/03/07 08:09:34;;;;;;;11.97;10.17;;;;;;;;;;5014135;28;20784;-78
2024/03/07 08:12:02;;;;;;;16.87;10.30;;;;;;;;;;5013717;28;20887;-80
2024/03/07 08:14:29;;;;;;;14.80;9.90;;;;;;;;;;5013855;28;20419;-79
2024/03/07 08:16:56;;;;;;;15.43;10.10;;;;;;;;;;5012932;28;20426;-79
2024/03/07 08:19:23;;;;;;;12.87;9.13;;;;;;;;;;5013567;28;20411;-79
2024/03/07 08:21:49;;;;;;;12.70;9.00;;;;;;;;;;5013824;28;20422;-78
2024/03/07 08:24:15;;;;;;;11.07;8.30;;;;;;;;;;5013695;28;20479;-78
2024/03/07 08:26:44;;;;;;;13.17;8.20;;;;;;;;;;5013393;28;20418;-79
2024/03/07 08:29:11;;;;;;;11.90;8.67;;;;;;;;;;5013494;28;20472;-79
2024/03/07 08:31:37;;;;;;;12.40;9.03;;;;;;;;;;5013726;28;20815;-78
2024/03/07 08:34:04;;;;;;;11.23;7.50;;;;;;;;;;5012170;28;20488;-79
2024/03/07 08:36:29;;;;;;;13.33;7.67;;;;;;;;;;5011838;28;20416;-78
2024/03/07 08:38:55;;;;;;;10.27;7.30;;;;;;;;;;5011808;28;20502;-79
2024/03/07 08:41:21;;;;;;;14.60;8.80;;;;;;;;;;5011440;28;20414;-78
2024/03/07 08:43:49;;;;;;;18.70;8.60;;;;;;;;;;5011544;28;20473;-79
2024/03/07 08:46:15;;;;;;;11.60;7.97;;;;;;;;;;5011747;28;20416;-78
2024/03/07 08:48:41;;;;;;;13.10;9.13;;;;;;;;;;5012666;28;20918;-80
2024/03/07 08:51:07;;;;;;;11.90;8.30;;;;;;;;;;5013532;28;20409;-78
2024/03/07 08:53:33;;;;;;;18.10;8.47;;;;;;;;;;5013514;28;20796;-78
2024/03/07 08:56:01;;;;;;;9.93;8.83;;;;;;;;;;5013012;28;20414;-78
2024/03/07 08:58:28;;;;;;;9.57;6.90;;;;;;;;;;5013330;28;20751;-78
2024/03/07 09:00:54;;;;;;;11.00;7.93;;;;;;;;;;5013391;28;20422;-79
2024/03/07 09:03:21;;;;;;;10.17;7.60;;;;;;;;;;5013280;28;20474;-79
2024/03/07 09:05:47;;;;;;;12.37;8.77;;;;;;;;;;5013385;28;20402;-80
2024/03/07 09:08:13;;;;;;;13.47;9.57;;;;;;;;;;5013318;28;20469;-81
2024/03/07 09:10:41;;;;;;;13.63;7.47;;;;;;;;;;5013183;28;20402;-79
2024/03/07 09:13:07;;;;;;;12.30;7.23;;;;;;;;;;5012900;28;20464;-81
2024/03/07 09:15:33;;;;;;;14.67;9.77;;;;;;;;;;5012010;28;20926;-79
2024/03/07 09:18:01;;;;;;;17.30;10.07;;;;;;;;;;5013318;28;20417;-79
2024/03/07 09:20:27;;;;;;;13.57;9.43;;;;;;;;;;5013153;28;20429;-80
2024/03/07 09:22:54;;;;;;;17.10;10.73;;;;;;;;;;5013087;28;20478;-81
2024/03/07 09:25:20;;;;;;;19.00;11.40;;;;;;;;;;5013123;28;20406;-78
2024/03/07 09:27:46;;;;;;;21.43;11.70;;;;;;;;;;5014684;28;20433;-81
2024/03/07 09:30:14;;;;;;;19.77;12.60;;;;;;;;;;5016945;28;20530;-79
2024/03/07 09:32:41;;;;;;;18.20;12.27;;;;;;;;;;5017011;28;20780;-79
2024/03/07 09:35:11;;;;;;;17.27;10.67;;;;;;;;;;5016971;28;20418;-78
2024/03/07 09:37:37;;;;;;;16.30;10.80;;;;;;;;;;5016995;28;20453;-80
2024/03/07 09:40:04;;;;;;;17.20;9.93;;;;;;;;;;5016869;28;20442;-79
2024/03/07 09:42:31;;;;;;;15.50;10.73;;;;;;;;;;5016438;28;20481;-79
2024/03/07 09:44:59;;;;;;;17.53;10.90;;;;;;;;;;5016825;28;20445;-79
2024/03/07 09:47:25;;;;;;;20.77;11.97;;;;;;;;;;5015495;28;20506;-80
2024/03/07 09:49:52;;;;;;;19.03;13.00;;;;;;;;;;5016658;28;20476;-79
2024/03/07 09:52:19;;;;;;;20.13;10.77;;;;;;;;;;5016712;28;20418;-78
2024/03/07 09:54:44;;;;;;;14.17;10.37;;;;;;;;;;5016639;28;20409;-81
2024/03/07 09:57:11;;;;;;;15.80;10.93;;;;;;;;;;5014997;28;20767;-80
2024/03/07 09:59:39;;;;;;;18.03;11.27;;;;;;;;;;5016518;28;20437;-81
2024/03/07 10:02:06;;;;;;;22.50;14.23;;;;;;;;;;5016337;28;20464;-81
2024/03/07 10:04:33;;;;;;;18.03;11.90;;;;;;;;;;5015244;28;20433;-80
2024/03/07 10:06:58;;;;;;;18.40;11.50;;;;;;;;;;5015121;28;20425;-79
2024/03/07 10:09:25;;;;;;;18.13;12.20;;;;;;;;;;5016342;28;20422;-78
2024/03/07 10:12:02;;;;;;;21.27;12.17;;;;;;;;;;5015951;28;20412;-79
2024/03/07 10:14:28;;;;;;;16.07;10.77;;;;;;;;;;5016278;28;20413;-81
2024/03/07 10:16:56;;;;;;;16.57;10.43;;;;;;;;;;5016224;28;20512;-79
2024/03/07 10:19:22;;;;;;;14.60;8.83;;;;;;;;;;5016248;28;20415;-79
2024/03/07 10:21:48;;;;;;;11.87;8.73;;;;;;;;;;5016016;28;20407;-81
2024/03/07 10:24:14;;;;;;;14.17;9.33;;;;;;;;;;5016077;28;20430;-81
2024/03/07 10:26:40;;;;;;;13.70;8.93;;;;;;;;;;5015804;28;20578;-80
2024/03/07 10:29:09;;;;;;;16.80;9.83;;;;;;;;;;5015910;28;20470;-81
2024/03/07 10:31:38;;;;;;;12.10;8.23;;;;;;;;;;5015918;28;20425;-79
2024/03/07 10:34:04;;;;;;;16.83;10.60;;;;;;;;;;5015912;28;20425;-81
2024/03/07 10:36:31;;;;;;;13.73;8.53;;;;;;;;;;5015878;28;20986;-79
2024/03/07 10:39:01;;;;;;;12.73;8.83;;;;;;;;;;5015011;28;20793;-81
2024/03/07 10:41:32;;;;;;;15.67;10.23;;;;;;;;;;5015462;28;20446;-81
2024/03/07 10:43:58;;;;;;;18.13;11.23;;;;;;;;;;5015668;28;20473;-81
2024/03/07 10:46:26;;;;;;;15.67;10.00;;;;;;;;;;5015664;28;20432;-80
2024/03/07 10:48:55;;;;;;;19.90;11.67;;;;;;;;;;5015634;28;20424;-80
2024/03/07 10:51:25;;;;;;;18.47;11.17;;;;;;;;;;5015424;28;20440;-81
2024/03/07 10:54:00;;;;;;;15.40;9.83;;;;;;;;;;5015482;28;20464;-80
2024/03/07 10:56:46;;;;;;;14.77;10.80;;;;;;;;;;5015202;28;20468;-81
2024/03/07 10:59:19;;;;;;;16.77;9.70;;;;;;;;;;5015404;28;20405;-80
2024/03/07 11:01:54;;;;;;;19.90;10.33;;;;;;;;;;5015324;28;20424;-79
2024/03/07 11:04:22;;;;;;;16.50;10.50;;;;;;;;;;5015296;28;20511;-78
2024/03/07 11:06:49;;;;;;;17.60;11.37;;;;;;;;;;5015220;28;20975;-79
2024/03/07 11:09:22;;;;;;;18.13;11.00;;;;;;;;;;5015157;28;20424;-80
2024/03/07 11:11:48;;;;;;;17.37;12.00;;;;;;;;;;5014922;28;20408;-81
2024/03/07 11:14:16;;;;;;;21.63;12.70;;;;;;;;;;5015140;28;20432;-79
2024/03/07 11:16:42;;;;;;;18.20;12.20;;;;;;;;;;5015063;28;20472;-81
2024/03/07 11:19:27;;;;;;;22.87;12.23;;;;;;;;;;5015089;28;20417;-79
2024/03/07 11:21:54;;;;;;;16.07;11.03;;;;;;;;;;5014955;28;20428;-79
2024/03/07 11:24:24;;;;;;;17.53;10.60;;;;;;;;;;5014465;28;20797;-81
2024/03/07 11:26:52;;;;;;;16.03;11.23;;;;;;;;;;5012388;28;20471;-81
2024/03/07 11:29:37;;;;;;;20.83;12.37;;;;;;;;;;5011630;28;20547;-80
2024/03/07 11:32:03;;;;;;;15.53;13.10;;;;;;;;;;5012318;28;20449;-82
2024/03/07 11:34:32;;;;;;;19.90;11.67;;;;;;;;;;5013002;28;20420;-79
2024/03/07 11:36:59;;;;;;;20.67;12.27;;;;;;;;;;5011747;28;20821;-82
2024/03/07 11:39:44;;;;;;;18.13;12.10;;;;;;;;;;5014157;28;20409;-81
2024/03/07 11:42:19;;;;;;;16.00;11.73;;;;;;;;;;5012674;28;20464;-80
2024/03/07 11:44:46;;;;;;;15.27;10.47;;;;;;;;;;5012722;28;20428;-82
2024/03/07 11:47:12;;;;;;;17.03;12.13;;;;;;;;;;5014464;28;20503;-81
2024/03/07 11:49:38;;;;;;;20.67;11.80;;;;;;;;;;5014481;28;20423;-82
2024/03/07 11:52:11;;;;;;;17.17;12.53;;;;;;;;;;5014454;28;20415;-82
2024/03/07 11:54:40;;;;;;;19.67;12.37;;;;;;;;;;5014417;28;20409;-81
2024/03/07 11:57:12;;;;;;;18.57;12.40;;;;;;;;;;5013974;28;20420;-80
2024/03/07 11:59:38;;;;;;;17.30;12.97;;;;;;;;;;5014441;28;20453;-79
2024/03/07 12:02:04;;;;;;;22.23;13.03;;;;;;;;;;5013738;28;20555;-80
2024/03/07 12:04:30;;;;;;;20.03;13.20;;;;;;;;;;5013713;28;20885;-79
2024/03/07 12:06:56;;;;;;;21.10;12.43;;;;;;;;;;5012742;28;20408;-79
2024/03/07 12:09:23;;;;;;;17.90;12.43;;;;;;;;;;5013933;28;20417;-82
2024/03/07 12:11:52;;;;;;;17.63;12.50;;;;;;;;;;5013762;28;20800;-83
2024/03/07 12:14:18;;;;;;;23.40;14.63;;;;;;;;;;5013711;28;20444;-81
2024/03/07 12:16:44;;;;;;;18.40;12.57;;;;;;;;;;5013266;28;20421;-81
2024/03/07 12:19:10;;;;;;;25.17;14.23;;;;;;;;;;5013991;28;20992;-81
2024/03/07 12:21:39;;;;;;;15.63;12.50;;;;;;;;;;5014033;28;20580;-83
2024/03/07 12:24:12;;;;;;;19.30;13.20;;;;;;;;;;5013832;28;20469;-84
2024/03/07 12:26:38;;;;;;;22.90;13.10;;;;;;;;;;5013521;28;20417;-81
2024/03/07 12:29:11;;;;;;;20.40;13.43;;;;;;;;;;5013589;28;20514;-81
2024/03/07 12:31:37;;;;;;;18.90;13.50;;;;;;;;;;5012442;28;20562;-82
2024/03/07 12:34:04;;;;;;;25.87;14.93;;;;;;;;;;5013833;28;20472;-83
2024/03/07 12:36:34;;;;;;;23.00;12.90;;;;;;;;;;5013634;28;20446;-83
2024/03/07 12:39:09;;;;;;;18.63;12.33;;;;;;;;;;5013657;28;20421;-80
2024/03/07 12:41:35;;;;;;;20.70;12.73;;;;;;;;;;5013313;28;20515;-80
2024/03/07 12:44:01;;;;;;;19.50;12.43;;;;;;;;;;5013529;28;20497;-83
2024/03/07 12:46:28;;;;;;;22.07;13.83;;;;;;;;;;5013633;28;20411;-79
2024/03/07 12:48:58;;;;;;;24.07;11.90;;;;;;;;;;5012231;28;20426;-82
2024/03/07 12:51:24;;;;;;;18.43;12.60;;;;;;;;;;5012987;28;20429;-82
2024/03/07 12:53:50;;;;;;;20.77;13.60;;;;;;;;;;5013613;28;20464;-80
2024/03/07 12:56:17;;;;;;;18.27;14.07;;;;;;;;;;5013145;28;20417;-79
2024/03/07 12:58:44;;;;;;;16.90;13.83;;;;;;;;;;5013167;28;20420;-81
2024/03/07 13:01:11;;;;;;;26.47;15.00;;;;;;;;;;5012332;28;20456;-82
2024/03/07 13:03:37;;;;;;;22.47;13.70;;;;;;;;;;5012797;28;20479;-79
2024/03/07 13:06:04;;;;;;;18.83;13.83;;;;;;;;;;5012637;28;20500;-83
2024/03/07 13:08:30;;;;;;;21.03;13.83;;;;;;;;;;5009166;28;20774;-79
2024/03/07 13:11:00;;;;;;;22.70;13.50;;;;;;;;;;5012667;28;20408;-81
2024/03/07 13:13:26;;;;;;;21.23;12.70;;;;;;;;;;5013184;28;20422;-81
2024/03/07 13:15:54;;;;;;;20.00;14.60;;;;;;;;;;5013018;28;20402;-81
2024/03/07 13:18:20;;;;;;;16.97;12.40;;;;;;;;;;5012579;28;20441;-79
2024/03/07 13:20:48;;;;;;;19.20;12.83;;;;;;;;;;5011949;28;20414;-79
2024/03/07 13:23:14;;;;;;;25.90;13.63;;;;;;;;;;5013083;28;20488;-83
2024/03/07 13:25:41;;;;;;;20.63;14.27;;;;;;;;;;5012812;28;20738;-83
2024/03/07 13:28:13;;;;;;;21.10;13.70;;;;;;;;;;5013083;28;20448;-81
2024/03/07 13:30:39;;;;;;;24.80;12.90;;;;;;;;;;5012940;28;20464;-83
2024/03/07 13:33:05;;;;;;;23.90;14.73;;;;;;;;;;5013227;28;20895;-82
2024/03/07 13:35:31;;;;;;;19.30;11.90;;;;;;;;;;5013043;28;20408;-83
2024/03/07 13:37:57;;;;;;;20.27;13.23;;;;;;;;;;5011248;28;20511;-84
2024/03/07 13:40:27;;;;;;;24.40;13.33;;;;;;;;;;5012514;28;20771;-79
2024/03/07 13:42:54;;;;;;;17.40;12.63;;;;;;;;;;5012948;28;20465;-81
2024/03/07 13:45:22;;;;;;;19.30;13.47;;;;;;;;;;5012999;28;20786;-79
2024/03/07 13:47:48;;;;;;;25.00;14.57;;;;;;;;;;5012928;28;20417;-82
2024/03/07 13:50:14;;;;;;;21.87;15.57;;;;;;;;;;5012857;28;20444;-82
2024/03/07 13:52:43;;;;;;;22.97;14.20;;;;;;;;;;5012847;28;20505;-80
2024/03/07 13:55:11;;;;;;;20.17;13.37;;;;;;;;;;5012537;28;20414;-79
2024/03/07 13:57:45;;;;;;;18.50;12.03;;;;;;;;;;5012929;28;20412;-79
2024/03/07 14:00:14;;;;;;;22.20;15.33;;;;;;;;;;5012827;28;20934;-80
2024/03/07 14:02:59;;;;;;;19.87;13.27;;;;;;;;;;5012725;28;20802;-83
2024/03/07 14:05:43;;;;;;;20.90;14.00;;;;;;;;;;5012607;28;20438;-79
2024/03/07 14:08:20;;;;;;;16.00;11.93;;;;;;;;;;5012553;28;20489;-82
2024/03/07 14:11:06;;;;;;;22.07;15.20;;;;;;;;;;5012293;28;20509;-82
2024/03/07 14:13:38;;;;;;;23.30;13.37;;;;;;;;;;5012614;28;20464;-79
2024/03/07 14:16:35;;;;;;;21.13;13.70;;;;;;;;;;5016255;28;20417;-84
2024/03/07 14:19:14;;;;;;;19.57;13.30;;;;;;;;;;5015012;28;20426;-81